Flight Track Log - Related Links

Times and Time Zones

All times are in EDT time to prevent confusion due to time zone crossing. See the NKS200 flight status page for this flight to view local times or setup timezone preferences in your user account.

Time Position Orientation Groundspeed Altitude Reporting Facility
EDT Latitude Longitude Course Direction KTS MPH feet Rate Location/Type
Sun 09:49:58 AM 29.9577 -95.3390 150° Southeast 156 180 800  Level FlightAware ADS-B
Sun 09:50:03 AM 29.9543 -95.3374 158° South 155 178 1,000 2,308 Climbing FlightAware ADS-B
Sun 09:50:11 AM 29.9485 -95.3368 175° South 154 177 1,300 2,182 Climbing FlightAware ADS-B
Sun 09:50:14 AM 29.9462 -95.3372 189° South 158 182 1,400 1,714 Climbing FlightAware ADS-B
Sun 09:50:18 AM 29.9436 -95.3383 200° South 161 185 1,500 1,500 Climbing FlightAware ADS-B
Sun 09:50:22 AM 29.9407 -95.3404 212° Southwest 164 189 1,600 1,333 Climbing FlightAware ADS-B
Sun 09:50:27 AM 29.9387 -95.3429 227° Southwest 167 192 1,700 1,500 Climbing FlightAware ADS-B
Sun 09:50:30 AM 29.9370 -95.3459 237° Southwest 170 196 1,800 2,250 Climbing FlightAware ADS-B
Sun 09:50:35 AM 29.9357 -95.3497 248° West 177 204 2,000 1,636 Climbing FlightAware ADS-B
Sun 09:50:41 AM 29.9353 -95.3553 265° West 182 209 2,100 1,333 Climbing FlightAware ADS-B
Sun 09:50:44 AM 29.9357 -95.3588 278° West 186 214 2,200 2,250 Climbing FlightAware ADS-B
Sun 09:50:49 AM 29.9372 -95.3633 291° West 194 223 2,400 1,800 Climbing FlightAware ADS-B
Sun 09:50:54 AM 29.9399 -95.3677 305° West 200 230 2,500 1,500 Climbing FlightAware ADS-B
Sun 09:50:57 AM 29.9420 -95.3699 318° Northwest 205 236 2,600 750 Climbing FlightAware ADS-B
Sun 09:51:02 AM 29.9463 -95.3734 325° Northwest 214 246 2,600 500 Level FlightAware ADS-B
Sun 09:51:09 AM 29.9518 -95.3757 340° North 227 261 2,700 462 Climbing FlightAware ADS-B
Sun 09:51:15 AM 29.9591 -95.3768 353° North 239 275 2,700 600 Level FlightAware ADS-B
Sun 09:51:19 AM 29.9637 -95.3767 North 250 288 2,800 1,500 Climbing FlightAware ADS-B
Sun 09:51:23 AM 29.9690 -95.3757 North 258 297 2,900 1,333 Climbing FlightAware ADS-B
Sun 09:51:28 AM 29.9742 -95.3741 15° North 265 305 3,000 1,800 Climbing FlightAware ADS-B
Sun 09:51:33 AM 29.9805 -95.3715 20° North 270 311 3,200 2,571 Climbing FlightAware ADS-B
Sun 09:51:49 AM 29.9992 -95.3629 22° Northeast 281 323 3,900 2,625 Climbing FlightAware ADS-B
Sun 09:52:05 AM 30.0193 -95.3536 22° Northeast 280 322 4,600 1,935 Climbing FlightAware ADS-B
Sun 09:52:20 AM 30.0375 -95.3455 21° North 279 321 4,900 600 Climbing FlightAware ADS-B
Sun 09:52:35 AM 30.0558 -95.3374 21° North 284 327 4,900  Level FlightAware ADS-B
Sun 09:53:09 AM 30.0971 -95.3191 21° North 286 329 4,900 375 Level FlightAware ADS-B
Sun 09:53:39 AM 30.1342 -95.3026 21° North 286 329 5,300 1,733 Climbing FlightAware ADS-B
Sun 09:53:54 AM 30.1531 -95.2941 21° North 287 330 6,200 3,265 Climbing FlightAware ADS-B
Sun 09:54:47 AM 30.2214 -95.2634 21° North 298 343 9,000 2,400 Climbing FlightAware ADS-B
Sun 09:56:04 AM 30.3266 -95.2159 21° North 355 409 11,400 2,299 Climbing FlightAware ADS-B
Sun 09:56:34 AM 30.3723 -95.1952 21° North 349 402 13,100 2,900 Climbing FlightAware ADS-B
Sun 09:57:04 AM 30.4183 -95.1746 21° North 354 407 14,300 2,366 Climbing FlightAware ADS-B
Sun 09:58:56 AM 30.5869 -95.0756 28° Northeast 366 421 18,700 2,308 Climbing FlightAware ADS-B
Sun 09:59:27 AM 30.6325 -95.0473 28° Northeast 367 422 19,800 1,810 Climbing FlightAware ADS-B
Sun 09:59:59 AM 30.6813 -95.0172 28° Northeast 377 434 20,600 1,839 Climbing FlightAware ADS-B
Sun 10:00:29 AM 30.7277 -94.9883 28° Northeast 377 434 21,700 1,742 Climbing FlightAware ADS-B
Sun 10:01:01 AM 30.7755 -94.9586 28° Northeast 385 443 22,400 1,548 Climbing FlightAware ADS-B
Sun 10:01:31 AM 30.8250 -94.9278 28° Northeast 391 450 23,300 1,600 Climbing FlightAware ADS-B
Sun 10:02:01 AM 30.8734 -94.8976 28° Northeast 396 456 24,000 1,377 Climbing FlightAware ADS-B
Sun 10:03:33 AM 31.0240 -94.8034 28° Northeast 414 476 26,100 1,366 Climbing FlightAware ADS-B
Sun 10:06:07 AM 31.2884 -94.6299 31° Northeast 436 502 29,600 1,207 Climbing FlightAware ADS-B
Sun 10:06:37 AM 31.3410 -94.5933 31° Northeast 448 516 29,800 600 Climbing FlightAware ADS-B
Sun 10:07:37 AM 31.4511 -94.5170 31° Northeast 465 535 30,500 857 Climbing FlightAware ADS-B
Sun 10:08:08 AM 31.5074 -94.4780 31° Northeast 467 537 31,100 1,377 Climbing FlightAware ADS-B
Sun 10:08:38 AM 31.5630 -94.4393 31° Northeast 463 533 31,900 1,400 Climbing FlightAware ADS-B
Sun 10:09:08 AM 31.6188 -94.4005 31° Northeast 465 535 32,500 846 Climbing FlightAware ADS-B
Sun 10:09:56 AM 31.7075 -94.3387 31° Northeast 469 540 33,000 385 Climbing FlightAware ADS-B
Sun 10:10:26 AM 31.7642 -94.2992 31° Northeast 464 534 33,000  Level FlightAware ADS-B
Sun 10:11:00 AM 31.8258 -94.2558 31° Northeast 463 533 33,000  Level FlightAware ADS-B
Sun 10:11:30 AM 31.8819 -94.2164 31° Northeast 465 535 33,000 295 Level FlightAware ADS-B
Sun 10:12:01 AM 31.9379 -94.1773 31° Northeast 465 535 33,300 956 Climbing FlightAware ADS-B
Sun 10:13:23 AM 32.0904 -94.0700 31° Northeast 465 535 34,800 1,053 Climbing FlightAware ADS-B
Sun 10:13:55 AM 32.1491 -94.0286 31° Northeast 463 533 35,300 1,065 Climbing FlightAware ADS-B
Sun 10:14:25 AM 32.2042 -93.9896 31° Northeast 463 533 35,900 1,219 Climbing FlightAware ADS-B
Sun 10:14:59 AM 32.2648 -93.9466 31° Northeast 454 522 36,600 673 Climbing FlightAware ADS-B
Sun 10:16:03 AM 32.3795 -93.8651 31° Northeast 453 521 37,000 222 Climbing FlightAware ADS-B
Sun 10:16:47 AM 32.4592 -93.8084 31° Northeast 453 521 37,000  Level FlightAware ADS-B
Sun 10:17:48 AM 32.5694 -93.7301 31° Northeast 457 526 37,000  Level FlightAware ADS-B
Sun 10:19:05 AM 32.6911 -93.6392 31° Northeast 451 519 37,000  Level Fort Worth Center
Sun 10:20:06 AM 32.8036 -93.5578 31° Northeast 456 525 37,000  Level Fort Worth Center
Sun 10:21:05 AM 32.9117 -93.4789 31° Northeast 456 525 37,000  Level Fort Worth Center
Sun 10:22:06 AM 33.0219 -93.3997 31° Northeast 456 525 37,000  Level Fort Worth Center
Sun 10:23:06 AM 33.1322 -93.3231 30° Northeast 456 525 37,000  Level Fort Worth Center
Sun 10:24:43 AM 33.3225 -93.1864 31° Northeast 467 537 37,000  Level Memphis Center
Sun 10:25:43 AM 33.4308 -93.1078 31° Northeast 467 537 37,000  Level Memphis Center
Sun 10:26:43 AM 33.5389 -93.0289 31° Northeast 460 529 37,000  Level Memphis Center
Sun 10:27:43 AM 33.6492 -92.9500 31° Northeast 460 529 37,000  Level Memphis Center
Sun 10:28:43 AM 33.7572 -92.8706 31° Northeast 460 529 37,000  Level Memphis Center
Sun 10:29:43 AM 33.8694 -92.7889 31° Northeast 460 529 37,000  Level Memphis Center
Sun 10:30:43 AM 33.9775 -92.7092 31° Northeast 460 529 37,000  Level Memphis Center
Sun 10:31:43 AM 34.0769 -92.6292 34° Northeast 460 529 37,000  Level Memphis Center
Sun 10:32:43 AM 34.1847 -92.5492 32° Northeast 445 512 37,000  Level Memphis Center
Sun 10:33:43 AM 34.2928 -92.4689 32° Northeast 445 512 37,000  Level Memphis Center
Sun 10:34:43 AM 34.4006 -92.3886 32° Northeast 445 512 37,000  Level Memphis Center
Sun 10:35:43 AM 34.5061 -92.3078 32° Northeast 445 512 37,000  Level Memphis Center
Sun 10:36:43 AM 34.6136 -92.2294 31° Northeast 445 512 37,000  Level Memphis Center
Sun 10:42:28 AM 35.3100 -91.9980 31° Northeast 450 518 37,000  Level FlightAware ADS-B
Sun 10:43:08 AM 35.3910 -91.9750 13° North 449 517 37,000  Level FlightAware ADS-B
Sun 10:43:49 AM 35.4640 -91.9540 13° North 450 518 37,000  Level FlightAware ADS-B
Sun 10:44:32 AM 35.5620 -91.9250 14° North 448 516 37,000  Level FlightAware ADS-B
Sun 10:45:20 AM 35.6480 -91.9000 13° North 448 516 37,000  Level FlightAware ADS-B
Sun 10:46:04 AM 35.7460 -91.8710 14° North 447 514 37,000  Level FlightAware ADS-B
Sun 10:46:43 AM 35.8220 -91.8490 13° North 446 513 37,000  Level FlightAware ADS-B
Sun 10:47:25 AM 35.8940 -91.8280 13° North 446 513 37,000  Level FlightAware ADS-B
Sun 10:48:06 AM 35.9930 -91.7990 13° North 446 513 37,000  Level FlightAware ADS-B
Sun 10:48:50 AM 36.0780 -91.7740 13° North 446 513 37,000  Level FlightAware ADS-B
Sun 10:49:34 AM 36.1680 -91.7470 14° North 445 512 37,000  Level FlightAware ADS-B
Sun 10:50:02 AM 36.2240 -91.7300 14° North 445 512 37,000  Level FlightAware ADS-B
Sun 10:50:36 AM 36.2930 -91.7100 13° North 446 513 37,000  Level FlightAware ADS-B
Sun 10:51:24 AM 36.3900 -91.6810 14° North 447 514 37,000  Level FlightAware ADS-B
Sun 10:52:04 AM 36.4710 -91.6570 13° North 447 514 37,000  Level FlightAware ADS-B
Sun 10:52:48 AM 36.5600 -91.6300 14° North 448 516 37,000  Level FlightAware ADS-B
Sun 10:53:32 AM 36.6490 -91.6030 14° North 447 514 37,000  Level FlightAware ADS-B
Sun 10:54:08 AM 36.7200 -91.5820 13° North 447 514 37,000  Level FlightAware ADS-B
Sun 10:54:56 AM 36.8170 -91.5530 13° North 446 513 37,000  Level FlightAware ADS-B
Sun 10:55:36 AM 36.8970 -91.5290 13° North 446 513 37,000  Level FlightAware ADS-B
Sun 10:56:20 AM 36.9860 -91.5020 14° North 446 513 37,000  Level FlightAware ADS-B
Sun 10:57:00 AM 37.0660 -91.4770 14° North 446 513 37,000  Level FlightAware ADS-B
Sun 10:57:44 AM 37.1540 -91.4510 13° North 446 513 37,000  Level FlightAware ADS-B
Sun 10:58:26 AM 37.2390 -91.4250 14° North 446 513 37,000  Level FlightAware ADS-B
Sun 10:59:04 AM 37.3140 -91.4020 14° North 446 513 37,000  Level FlightAware ADS-B
Sun 10:59:34 AM 37.3750 -91.3830 14° North 446 513 37,000  Level FlightAware ADS-B
Sun 11:00:10 AM 37.4460 -91.3610 14° North 446 513 37,000  Level FlightAware ADS-B
Sun 11:00:58 AM 37.5440 -91.3310 14° North 447 514 37,000  Level FlightAware ADS-B
Sun 11:01:49 AM 37.6350 -91.3040 13° North 447 514 37,000  Level FlightAware ADS-B
Sun 11:02:13 AM 37.6760 -91.2920 13° North 447 514 37,000  Level FlightAware ADS-B
Sun 11:02:58 AM 37.7850 -91.2570 14° North 451 519 37,000 -217 Level FlightAware ADS-B
Sun 11:03:36 AM 37.8620 -91.2320 14° North 449 517 36,700 -1,286 Descending FlightAware ADS-B
Sun 11:04:08 AM 37.9260 -91.2130 13° North 450 518 35,500 -1,010 Descending FlightAware ADS-B
Sun 11:05:17 AM 38.0540 -91.1740 13° North 459 528 35,000 -256 Descending FlightAware ADS-B
Sun 11:06:05 AM 38.1380 -91.1490 13° North 459 528 35,000  Level FlightAware ADS-B
Sun 11:06:44 AM 38.2070 -91.1290 13° North 459 528 35,000  Level FlightAware ADS-B
Sun 11:07:20 AM 38.2700 -91.1100 13° North 459 528 35,000  Level FlightAware ADS-B
Sun 11:08:12 AM 38.4150 -91.0600 15° North 457 526 35,000  Level FlightAware ADS-B
Sun 11:08:48 AM 38.4780 -91.0420 13° North 457 526 35,000  Level FlightAware ADS-B
Sun 11:09:32 AM 38.5910 -91.0040 15° North 457 526 35,000  Level FlightAware ADS-B
Sun 11:10:19 AM 38.6810 -90.9750 14° North 457 526 35,000  Level FlightAware ADS-B
Sun 11:11:03 AM 38.7730 -90.9280 22° Northeast 458 527 35,000  Level FlightAware ADS-B
Sun 11:12:04 AM 38.8850 -90.8690 22° Northeast 458 527 35,000  Level FlightAware ADS-B
Sun 11:12:45 AM 38.9720 -90.8210 23° Northeast 458 527 35,000  Level FlightAware ADS-B
Sun 11:13:22 AM 39.0340 -90.7890 22° Northeast 458 527 35,000  Level FlightAware ADS-B
Sun 11:14:03 AM 39.1260 -90.7370 24° Northeast 460 529 35,000  Level FlightAware ADS-B
Sun 11:14:43 AM 39.1960 -90.6980 23° Northeast 460 529 35,000  Level FlightAware ADS-B
Sun 11:15:24 AM 39.2850 -90.6490 23° Northeast 462 532 35,000 -488 Level FlightAware ADS-B
Sun 11:16:09 AM 39.3710 -90.6020 23° Northeast 462 532 34,300 -483 Descending FlightAware ADS-B
Sun 11:16:51 AM 39.4420 -90.5630 23° Northeast 462 532 34,300 -929 Level FlightAware ADS-B
Sun 11:17:33 AM 39.5410 -90.5090 23° Northeast 463 533 33,000 -975 Descending FlightAware ADS-B
Sun 11:18:11 AM 39.6070 -90.4720 23° Northeast 463 533 33,000  Level FlightAware ADS-B
Sun 11:18:52 AM 39.6940 -90.4240 23° Northeast 461 531 33,000  Level FlightAware ADS-B
Sun 11:19:29 AM 39.7650 -90.3840 23° Northeast 463 533 33,000  Level FlightAware ADS-B
Sun 11:20:00 AM 39.8280 -90.3490 23° Northeast 462 532 33,000  Level FlightAware ADS-B
Sun 11:20:32 AM 39.8890 -90.3140 24° Northeast 462 532 33,000  Level FlightAware ADS-B
Sun 11:21:10 AM 39.9670 -90.2710 23° Northeast 462 532 33,000  Level FlightAware ADS-B
Sun 11:21:54 AM 40.0520 -90.2230 23° Northeast 463 533 33,000  Level FlightAware ADS-B
Sun 11:22:38 AM 40.1380 -90.1740 24° Northeast 463 533 33,000  Level FlightAware ADS-B
Sun 11:23:15 AM 40.2100 -90.1330 24° Northeast 462 532 33,000  Level FlightAware ADS-B
Sun 11:24:02 AM 40.3030 -90.0810 23° Northeast 462 532 33,000  Level FlightAware ADS-B
Sun 11:24:43 AM 40.3840 -90.0350 23° Northeast 464 534 33,000  Level FlightAware ADS-B
Sun 11:25:23 AM 40.4620 -89.9900 24° Northeast 464 534 33,000  Level FlightAware ADS-B
Sun 11:26:07 AM 40.5490 -89.9410 23° Northeast 463 533 33,000  Level FlightAware ADS-B
Sun 11:26:45 AM 40.6240 -89.8970 24° Northeast 463 533 33,000  Level FlightAware ADS-B
Sun 11:27:23 AM 40.7000 -89.8540 23° Northeast 464 534 33,000 -1,185 Level FlightAware ADS-B
Sun 11:28:06 AM 40.7840 -89.8060 23° Northeast 471 542 31,400 -2,175 Descending FlightAware ADS-B
Sun 11:28:43 AM 40.8570 -89.7630 24° Northeast 461 531 30,100 -2,241 Descending FlightAware ADS-B
Sun 11:29:29 AM 40.9470 -89.7120 23° Northeast 451 519 28,300 -2,278 Descending FlightAware ADS-B
Sun 11:30:02 AM 41.0070 -89.6770 24° Northeast 446 513 27,100 -2,829 Descending FlightAware ADS-B
Sun 11:30:39 AM 41.0790 -89.6340 24° Northeast 456 525 25,000 -2,954 Descending FlightAware ADS-B
Sun 11:31:07 AM 41.1330 -89.6010 25° Northeast 459 528 23,900 -2,222 Descending FlightAware ADS-B
Sun 11:31:33 AM 41.1730 -89.5520 43° Northeast 453 521 23,000 -2,118 Descending FlightAware ADS-B
Sun 11:32:15 AM 41.2150 -89.4510 61° Northeast 437 503 21,500 -1,953 Descending FlightAware ADS-B
Sun 11:32:59 AM 41.2560 -89.3490 62° Northeast 412 474 20,200 -2,118 Descending FlightAware ADS-B
Sun 11:33:40 AM 41.2920 -89.2610 61° Northeast 405 466 18,500 -2,400 Descending FlightAware ADS-B
Sun 11:34:19 AM 41.3260 -89.1760 62° Northeast 396 456 17,000 -2,163 Descending FlightAware ADS-B
Sun 11:35:06 AM 41.3660 -89.0780 61° Northeast 384 442 15,400 -2,022 Descending FlightAware ADS-B
Sun 11:35:48 AM 41.3990 -88.9930 63° Northeast 376 433 14,000 -1,143 Descending FlightAware ADS-B
Sun 11:36:30 AM 41.4350 -88.9040 62° Northeast 374 430 13,800 -1,229 Descending FlightAware ADS-B
Sun 11:37:11 AM 41.4670 -88.8210 63° Northeast 373 429 12,300 -2,077 Descending FlightAware ADS-B
Sun 11:37:48 AM 41.4970 -88.7460 62° Northeast 368 423 11,100 -1,091 Descending FlightAware ADS-B
Sun 11:38:28 AM 41.5290 -88.6640 62° Northeast 374 430 10,900 -145 Descending FlightAware ADS-B
Sun 11:39:11 AM 41.5640 -88.5760 62° Northeast 370 426 10,900  Level FlightAware ADS-B
Sun 11:39:55 AM 41.5980 -88.4930 61° Northeast 336 387 10,900  Level FlightAware ADS-B
Sun 11:40:36 AM 41.6330 -88.4260 55° Northeast 302 348 10,900  Level FlightAware ADS-B
Sun 11:41:18 AM 41.6670 -88.3690 51° Northeast 267 307 10,900 -296 Level FlightAware ADS-B
Sun 11:41:57 AM 41.6950 -88.3190 53° Northeast 262 302 10,500 -676 Descending FlightAware ADS-B
Sun 11:42:29 AM 41.7190 -88.2790 51° Northeast 251 289 10,100 -667 Descending FlightAware ADS-B
Sun 11:42:51 AM 41.7350 -88.2520 52° Northeast 238 274 9,900 -267 Descending FlightAware ADS-B
Sun 11:43:14 AM 41.7490 -88.2260 54° Northeast 229 264 9,900  Level FlightAware ADS-B
Sun 11:43:31 AM 41.7600 -88.2080 51° Northeast 225 259 9,900 -462 Level FlightAware ADS-B
Sun 11:43:53 AM 41.7760 -88.1860 46° Northeast 224 258 9,600 -913 Descending FlightAware ADS-B
Sun 11:44:17 AM 41.7960 -88.1640 39° Northeast 228 262 9,200 -1,077 Descending FlightAware ADS-B
Sun 11:44:32 AM 41.8110 -88.1600 11° North 230 265 8,900 -1,116 Descending FlightAware ADS-B
Sun 11:45:00 AM 41.8410 -88.1580 North 229 264 8,400 -955 Descending FlightAware ADS-B
Sun 11:45:16 AM 41.8570 -88.1530 13° North 227 261 8,200 -878 Descending FlightAware ADS-B
Sun 11:45:41 AM 41.8820 -88.1420 18° North 224 258 7,800 -706 Descending FlightAware ADS-B
Sun 11:46:24 AM 41.9110 -88.1290 18° North 224 258 7,400 -842 Descending FlightAware ADS-B
Sun 11:46:38 AM 41.9380 -88.1160 20° North 222 255 7,000 -1,636 Descending FlightAware ADS-B
Sun 11:46:46 AM 41.9460 -88.1150 North 219 252 6,800 -1,071 Descending FlightAware ADS-B
Sun 11:47:06 AM 41.9650 -88.1210 347° North 214 246 6,500 -913 Descending FlightAware ADS-B
Sun 11:47:32 AM 41.9900 -88.1310 343° North 211 243 6,100 -977 Descending FlightAware ADS-B
Sun 11:47:49 AM 42.0050 -88.1370 343° North 214 246 5,800 -1,143 Descending FlightAware ADS-B
Sun 11:48:14 AM 42.0260 -88.1460 342° North 216 249 5,300 -1,241 Descending FlightAware ADS-B
Sun 11:48:47 AM 42.0590 -88.1340 15° North 224 258 4,600 -1,309 Descending FlightAware ADS-B
Sun 11:49:09 AM 42.0740 -88.1130 46° Northeast 213 245 4,100 -1,784 Descending FlightAware ADS-B
Sun 11:49:24 AM 42.0790 -88.0930 71° East 206 237 3,500 -1,909 Descending FlightAware ADS-B
Sun 11:49:53 AM 42.0720 -88.0590 105° East 202 232 2,700 -1,565 Descending FlightAware ADS-B
Sun 11:50:10 AM 42.0650 -88.0390 115° Southeast 202 232 2,300 -585 Descending FlightAware ADS-B
Sun 11:50:34 AM 42.0570 -88.0120 112° Southeast 193 222 2,300 -154 Level FlightAware ADS-B
Sun 11:50:49 AM 42.0500 -87.9980 124° Southeast 173 199 2,200 -698 Descending FlightAware ADS-B
Sun 11:51:17 AM 42.0330 -87.9810 143° Southeast 152 175 1,800 -955 Descending FlightAware ADS-B
Sun 11:51:33 AM 42.0250 -87.9720 140° Southeast 141 162 1,500 -857 Descending FlightAware ADS-B
Sun 11:51:59 AM 42.0120 -87.9580 141° Southeast 133 153 1,200 -720 Descending FlightAware ADS-B
Sun 11:52:23 AM 42.0020 -87.9460 138° Southeast 133 153 900 -750 Descending FlightAware ADS-B
Sun 11:53:09 AM 41.9810 -87.9220 140° Southeast 92 106 -1,174 Descending FlightAware ADS-B
Sun 11:53:21 AM 41.9780 -87.9190 143° Southeast 50 58  Level FlightAware ADS-B
Sun 11:53:48 AM 41.9740 -87.9140 137° Southeast 50 58  Level FlightAware ADS-B
Sun 11:55:11 AM 41.9780 -87.9130 11° North 17 20  Level FlightAware ADS-B
Sun 11:57:52 AM 41.9830 -87.8950 70° East 18 21  Level FlightAware ADS-B

Login

Don't have an account? Register now (free) for customized features, flight alerts, and more!